createdAt,value
2023-02-15T00:02:02.289Z,101798.16
2023-02-15T00:04:47.281Z,101804.78
2023-02-15T00:07:19.094Z,101802.44
2023-02-15T00:09:49.694Z,101798.03
2023-02-15T00:12:17.552Z,101808.84
2023-02-15T00:14:44.890Z,101807.34
2023-02-15T00:17:12.005Z,101799.34
2023-02-15T00:19:38.984Z,101799.63
2023-02-15T00:22:05.877Z,101783.66
2023-02-15T00:24:33.504Z,101805.88
2023-02-15T00:27:00.347Z,101794.59
2023-02-15T00:29:27.533Z,101789.44
2023-02-15T00:31:54.611Z,101793.75
2023-02-15T00:34:26.185Z,101788.69
2023-02-15T00:36:53.346Z,101792.25
2023-02-15T00:39:20.622Z,101786.38
2023-02-15T00:41:48.140Z,101786.22
2023-02-15T00:44:15.532Z,101788.03
2023-02-15T00:46:42.490Z,101794.41
2023-02-15T00:49:11.340Z,101784.41
2023-02-15T00:51:38.623Z,101788.63
2023-02-15T00:54:05.738Z,101777.09
2023-02-15T00:56:32.716Z,101781.50
2023-02-15T00:58:59.655Z,101782.50
2023-02-15T01:01:27.013Z,101778.44
2023-02-15T01:03:54.281Z,101781.50
2023-02-15T01:06:21.342Z,101773.06
2023-02-15T01:08:48.579Z,101772.06
2023-02-15T01:11:50.260Z,101766.03
2023-02-15T01:14:09.730Z,101774.78
2023-02-15T01:16:39.041Z,101772.81
2023-02-15T01:19:06.969Z,101776.28
2023-02-15T01:21:35.558Z,101792.41
2023-02-15T01:24:03.360Z,101781.66
2023-02-15T01:26:30.450Z,101797.53
2023-02-15T01:29:00.893Z,101797.19
2023-02-15T01:31:27.900Z,101794.47
2023-02-15T01:33:54.863Z,101780.81
2023-02-15T01:36:21.746Z,101773.03
2023-02-15T01:38:48.805Z,101777.66
2023-02-15T01:41:21.601Z,101777.44
2023-02-15T01:44:02.749Z,101775.94
2023-02-15T01:46:45.608Z,101773.94
2023-02-15T01:49:20.649Z,101780.47
2023-02-15T01:51:53.692Z,101771.84
2023-02-15T01:54:28.752Z,101777.28
2023-02-15T01:57:03.645Z,101772.34
2023-02-15T01:59:33.466Z,101779.34
2023-02-15T02:02:03.019Z,101779.75
2023-02-15T02:04:41.100Z,101772.50
2023-02-15T02:07:10.582Z,101785.91
2023-02-15T02:09:38.730Z,101781.53
2023-02-15T02:12:06.233Z,101782.16
2023-02-15T02:14:33.402Z,101779.41
2023-02-15T02:17:28.534Z,101776.56
2023-02-15T02:19:58.506Z,101784.31
2023-02-15T02:22:50.351Z,101791.75
2023-02-15T02:25:50.692Z,101791.38
2023-02-15T02:28:55.049Z,101797.00
2023-02-15T02:31:38.410Z,101789.69
2023-02-15T02:34:23.630Z,101793.34
2023-02-15T02:37:02.609Z,101799.16
2023-02-15T02:39:35.492Z,101805.56
2023-02-15T02:42:08.404Z,101799.19
2023-02-15T02:44:45.537Z,101813.88
2023-02-15T02:47:21.610Z,101809.13
2023-02-15T02:49:49.581Z,101803.78
2023-02-15T02:52:36.877Z,101800.63
2023-02-15T02:55:08.164Z,101815.16
2023-02-15T02:57:38.272Z,101813.97
2023-02-15T03:00:07.336Z,101816.38
2023-02-15T03:02:39.501Z,101817.06
2023-02-15T03:05:13.057Z,101810.56
2023-02-15T03:07:42.241Z,101810.22
2023-02-15T03:10:11.040Z,101820.88
2023-02-15T03:12:41.676Z,101818.97
2023-02-15T03:27:53.645Z,101813.66
2023-02-15T03:30:24.285Z,101822.78
2023-02-15T03:32:52.778Z,101820.41
2023-02-15T03:35:25.690Z,101818.75
2023-02-15T03:37:57.506Z,101829.03
2023-02-15T03:40:48.650Z,101834.63
2023-02-15T03:43:28.837Z,101839.72
2023-02-15T03:46:01.470Z,101828.56
2023-02-15T03:48:37.831Z,101833.91
2023-02-15T03:51:29.138Z,101840.19
2023-02-15T03:53:58.382Z,101840.19
2023-02-15T03:56:25.782Z,101839.34
2023-02-15T03:59:11.038Z,101848.94
2023-02-15T04:02:00.021Z,101843.63
2023-02-15T04:04:40.044Z,101843.84
2023-02-15T04:07:09.415Z,101839.72
2023-02-15T04:09:55.402Z,101837.59
2023-02-15T04:12:22.459Z,101850.97
2023-02-15T04:15:07.782Z,101846.09
2023-02-15T04:17:36.781Z,101854.63
2023-02-15T04:20:22.190Z,101852.25
2023-02-15T04:23:07.534Z,101853.44
2023-02-15T04:25:34.360Z,101857.38
2023-02-15T04:28:01.205Z,101854.28
2023-02-15T04:30:28.158Z,101863.50
2023-02-15T04:32:58.214Z,101859.88
2023-02-15T04:35:25.505Z,101872.88
2023-02-15T04:37:52.371Z,101874.06
2023-02-15T04:40:19.843Z,101871.94
2023-02-15T04:42:50.109Z,101876.78
2023-02-15T04:45:18.211Z,101886.75
2023-02-15T04:47:45.209Z,101879.16
2023-02-15T04:50:12.379Z,101887.09
2023-02-15T04:52:40.071Z,101890.88
2023-02-15T04:55:07.561Z,101887.69
2023-02-15T04:57:34.418Z,101901.44
2023-02-15T05:00:01.576Z,101900.38
2023-02-15T05:02:28.547Z,101906.31
2023-02-15T05:04:55.473Z,101901.22
2023-02-15T05:07:22.351Z,101905.59
2023-02-15T05:09:49.112Z,101910.91
2023-02-15T05:12:15.952Z,101909.25
2023-02-15T05:14:42.879Z,101917.56
2023-02-15T05:17:09.844Z,101928.09
2023-02-15T05:19:36.669Z,101936.75
2023-02-15T05:22:03.505Z,101936.75
2023-02-15T05:24:48.889Z,101934.25
2023-02-15T05:27:34.591Z,101939.09
2023-02-15T05:30:01.547Z,101947.53
2023-02-15T05:32:28.647Z,101941.47
2023-02-15T05:34:55.546Z,101952.38
2023-02-15T05:37:22.420Z,101942.44
2023-02-15T05:39:49.240Z,101955.63
2023-02-15T05:42:16.130Z,101948.28
2023-02-15T05:44:43.170Z,101951.81
2023-02-15T05:47:10.014Z,101954.88
2023-02-15T05:49:37.134Z,101961.63
2023-02-15T05:52:04.756Z,101960.34
2023-02-15T05:54:31.895Z,101963.72
2023-02-15T05:56:58.854Z,101959.44
2023-02-15T05:59:25.758Z,101959.91
2023-02-15T06:01:52.575Z,101965.72
2023-02-15T06:04:19.499Z,101968.34
2023-02-15T06:06:46.405Z,101974.22
2023-02-15T06:09:14.297Z,101986.78
2023-02-15T06:11:41.486Z,101990.53
2023-02-15T06:14:08.308Z,101985.53
2023-02-15T06:16:35.076Z,101986.22
2023-02-15T06:19:02.875Z,101995.59
2023-02-15T06:21:31.344Z,102001.34
2023-02-15T06:23:58.588Z,101986.91
2023-02-15T06:26:25.552Z,101996.09
2023-02-15T06:28:52.448Z,101998.09
2023-02-15T06:31:19.481Z,101996.06
2023-02-15T06:33:46.420Z,102000.16
2023-02-15T06:36:13.754Z,102004.53
2023-02-15T06:38:40.699Z,102002.19
2023-02-15T06:41:07.620Z,102004.28
2023-02-15T06:43:35.337Z,102009.97
2023-02-15T06:46:02.510Z,102010.84
2023-02-15T06:48:29.510Z,102017.28
2023-02-15T06:50:56.378Z,102012.50
2023-02-15T06:53:23.323Z,102016.69
2023-02-15T06:55:50.316Z,102014.91
2023-02-15T06:58:17.455Z,102011.53
2023-02-15T07:00:44.274Z,102016.81
2023-02-15T07:03:15.365Z,102025.31
2023-02-15T07:05:42.227Z,102024.78
2023-02-15T07:08:09.117Z,102025.66
2023-02-15T07:10:35.990Z,102037.53
2023-02-15T07:13:02.849Z,102022.00
2023-02-15T07:15:30.681Z,102038.75
2023-02-15T07:17:59.677Z,102041.69
2023-02-15T07:20:26.776Z,102029.44
2023-02-15T07:22:53.630Z,102037.09
2023-02-15T07:25:20.726Z,102029.06
2023-02-15T07:27:47.923Z,102032.91
2023-02-15T07:30:17.082Z,102035.25
2023-02-15T07:33:05.071Z,102034.50
2023-02-15T07:35:33.143Z,102038.75
2023-02-15T07:38:00.034Z,102037.53
2023-02-15T07:40:27.197Z,102043.34
2023-02-15T07:42:55.708Z,102033.56
2023-02-15T07:45:22.940Z,102028.81
2023-02-15T07:47:50.056Z,102042.09
2023-02-15T07:50:17.062Z,102042.94
2023-02-15T07:52:44.013Z,102034.47
2023-02-15T07:55:13.822Z,102038.25
2023-02-15T07:57:48.241Z,102031.06
2023-02-15T08:00:16.425Z,102046.72
2023-02-15T08:02:48.329Z,102026.03
2023-02-15T08:05:15.344Z,102033.69
2023-02-15T08:07:42.195Z,102027.13
2023-02-15T08:10:09.296Z,102026.91
2023-02-15T08:12:36.205Z,102036.94
2023-02-15T08:15:04.123Z,102030.78
2023-02-15T08:17:31.009Z,102037.63
2023-02-15T08:19:57.871Z,102040.94
2023-02-15T08:22:25.626Z,102045.00
2023-02-15T08:24:52.445Z,102033.41
2023-02-15T08:27:19.330Z,102030.00
2023-02-15T08:29:46.204Z,102038.13
2023-02-15T08:32:13.450Z,102033.69
2023-02-15T08:34:42.860Z,102044.53
2023-02-15T08:37:10.471Z,102037.25
2023-02-15T08:39:37.905Z,102045.38
2023-02-15T08:42:05.001Z,102043.63
2023-02-15T08:44:31.934Z,102039.16
2023-02-15T08:47:03.889Z,102043.63
2023-02-15T08:49:31.025Z,102037.53
2023-02-15T08:51:57.859Z,102051.69
2023-02-15T08:54:24.899Z,102046.69
2023-02-15T08:56:52.011Z,102042.75
2023-02-15T08:59:21.748Z,102053.06
2023-02-15T09:01:51.117Z,102049.34
2023-02-15T09:04:18.400Z,102041.72
2023-02-15T09:06:50.230Z,102036.03
2023-02-15T09:09:19.166Z,102035.06
2023-02-15T09:11:48.833Z,102027.97
2023-02-15T09:14:18.343Z,102027.97
2023-02-15T09:16:49.689Z,102035.97
2023-02-15T09:19:19.006Z,102038.75
2023-02-15T09:21:46.479Z,102025.44
2023-02-15T09:24:15.520Z,102031.97
2023-02-15T09:26:44.670Z,102036.72
2023-02-15T09:29:13.400Z,102027.88
2023-02-15T09:31:45.473Z,102031.19
2023-02-15T09:34:18.310Z,102023.94
2023-02-15T09:36:45.922Z,102024.94
2023-02-15T09:39:18.604Z,102007.22
2023-02-15T09:41:57.550Z,102027.63
2023-02-15T09:44:27.327Z,102021.41
2023-02-15T09:47:19.218Z,102029.84
2023-02-15T09:50:04.521Z,102030.84
2023-02-15T09:53:28.719Z,102011.47
2023-02-15T09:56:07.493Z,102018.66
2023-02-15T09:58:49.495Z,102004.22
2023-02-15T10:01:29.841Z,102017.31
2023-02-15T10:04:21.645Z,102013.13
2023-02-15T10:07:23.243Z,102009.28
2023-02-15T10:09:55.846Z,101998.06
2023-02-15T10:12:37.539Z,102000.50
2023-02-15T10:15:25.422Z,101994.56
2023-02-15T10:18:30.720Z,102005.00
2023-02-15T10:21:40.415Z,101987.72
2023-02-15T10:24:32.068Z,101999.31
2023-02-15T10:27:09.014Z,101991.78
2023-02-15T10:29:43.426Z,101975.78
2023-02-15T10:32:16.668Z,101984.38
2023-02-15T10:34:58.351Z,101971.34
2023-02-15T10:37:54.672Z,101988.22
2023-02-15T10:40:21.612Z,101982.19
2023-02-15T10:42:51.367Z,101991.66
2023-02-15T10:45:42.977Z,101985.69
2023-02-15T10:48:27.919Z,101983.44
2023-02-15T10:51:04.361Z,101975.72
2023-02-15T10:53:53.118Z,101974.44
2023-02-15T10:56:41.248Z,101985.50
2023-02-15T10:59:16.547Z,101969.88
2023-02-15T11:01:57.264Z,101986.97
2023-02-15T11:04:52.375Z,101970.84
2023-02-15T11:07:34.843Z,101960.16
2023-02-15T11:10:01.707Z,101970.44
2023-02-15T11:12:31.965Z,101973.44
2023-02-15T11:15:05.577Z,101978.50
2023-02-15T11:17:40.751Z,101979.72
2023-02-15T11:20:26.790Z,101980.56
2023-02-15T11:22:54.529Z,101981.50
2023-02-15T11:25:26.961Z,101979.31
2023-02-15T11:27:55.617Z,101977.19
2023-02-15T11:30:25.071Z,101976.25
2023-02-15T11:32:57.231Z,101973.06
2023-02-15T11:35:33.518Z,101975.59
2023-02-15T11:38:24.506Z,101971.88
2023-02-15T11:40:58.578Z,101961.69
2023-02-15T11:43:35.810Z,101965.63
2023-02-15T11:46:02.845Z,101974.56
2023-02-15T11:48:32.852Z,101971.88
2023-02-15T11:51:01.213Z,101966.66
2023-02-15T11:53:33.094Z,101961.75
2023-02-15T11:56:01.515Z,101957.91
2023-02-15T11:58:55.784Z,101953.34
2023-02-15T12:01:37.924Z,101954.44
2023-02-15T12:04:10.506Z,101947.00
2023-02-15T12:06:45.402Z,101950.28
2023-02-15T12:09:46.930Z,101943.63
2023-02-15T12:12:27.379Z,101941.19
2023-02-15T12:14:56.612Z,101939.22
2023-02-15T12:17:27.030Z,101926.31
2023-02-15T12:19:57.707Z,101929.63
2023-02-15T12:22:31.442Z,101934.13
2023-02-15T12:25:04.909Z,101941.91
2023-02-15T12:27:35.951Z,101929.34
2023-02-15T12:30:16.160Z,101936.78
2023-02-15T12:32:57.567Z,101934.00
2023-02-15T12:35:33.709Z,101928.66
2023-02-15T12:38:25.419Z,101920.66
2023-02-15T12:41:00.452Z,101925.28
2023-02-15T12:43:32.451Z,101932.75
2023-02-15T12:46:37.918Z,101923.38
2023-02-15T12:49:20.454Z,101926.13
2023-02-15T12:52:21.241Z,101933.28
2023-02-15T12:54:49.279Z,101931.09
2023-02-15T12:57:24.399Z,101932.97
2023-02-15T12:59:58.034Z,101928.28
2023-02-15T13:02:44.024Z,101925.50
2023-02-15T13:05:10.800Z,101929.38
2023-02-15T13:07:38.233Z,101924.97
2023-02-15T13:10:05.872Z,101927.84
2023-02-15T13:12:33.166Z,101928.59
2023-02-15T13:15:02.703Z,101934.97
2023-02-15T13:17:35.572Z,101927.38
2023-02-15T13:20:08.669Z,101927.13
2023-02-15T13:22:44.770Z,101921.34
2023-02-15T13:25:24.286Z,101919.88
2023-02-15T13:27:57.913Z,101921.53
2023-02-15T13:30:36.500Z,101918.56
2023-02-15T13:33:07.128Z,101918.94
2023-02-15T13:35:44.759Z,101927.47
2023-02-15T13:38:19.137Z,101921.41
2023-02-15T13:40:55.243Z,101917.19
2023-02-15T13:43:40.611Z,101927.41
2023-02-15T13:46:07.505Z,101914.78
2023-02-15T13:49:00.495Z,101914.72
2023-02-15T13:51:45.557Z,101914.47
2023-02-15T13:54:40.042Z,101918.38
2023-02-15T13:57:09.994Z,101916.81
2023-02-15T13:59:46.229Z,101925.97
2023-02-15T14:02:13.024Z,101922.13
2023-02-15T14:05:11.157Z,101924.09
2023-02-15T14:08:04.053Z,101915.19
2023-02-15T14:10:42.960Z,101910.16
2023-02-15T14:13:54.405Z,101917.09
2023-02-15T14:17:05.742Z,101910.47
2023-02-15T14:19:39.191Z,101920.38
2023-02-15T14:22:24.282Z,101919.03
2023-02-15T14:25:29.884Z,101910.34
2023-02-15T14:27:59.957Z,101919.72
2023-02-15T14:30:49.718Z,101910.69
2023-02-15T14:33:33.232Z,101911.00
2023-02-15T14:36:03.977Z,101907.19
2023-02-15T14:38:58.692Z,101916.81
2023-02-15T14:41:54.523Z,101910.88
2023-02-15T14:44:38.851Z,101916.13
2023-02-15T14:47:37.836Z,101911.53
2023-02-15T14:50:38.474Z,101911.84
2023-02-15T14:53:32.049Z,101912.13
2023-02-15T14:56:19.282Z,101911.16
2023-02-15T14:58:55.073Z,101909.25
2023-02-15T15:01:31.980Z,101902.97
2023-02-15T15:04:22.762Z,101910.09
2023-02-15T15:07:04.921Z,101905.97
2023-02-15T15:09:34.778Z,101905.59
2023-02-15T15:12:28.368Z,101913.53
2023-02-15T15:29:54.419Z,101918.78
2023-02-15T15:32:30.166Z,101923.56
2023-02-15T15:35:26.237Z,101928.44
2023-02-15T15:38:02.077Z,101925.59
2023-02-15T15:40:43.186Z,101939.94
2023-02-15T15:43:35.031Z,101931.78
2023-02-15T15:46:23.073Z,101934.03
2023-02-15T15:48:49.981Z,101935.41
2023-02-15T15:51:28.354Z,101940.53
2023-02-15T15:53:56.244Z,101935.19
2023-02-15T15:56:32.374Z,101939.13
2023-02-15T15:59:03.284Z,101946.31
2023-02-15T16:01:32.531Z,101944.69
2023-02-15T16:04:00.358Z,101952.97
2023-02-15T16:06:34.185Z,101949.41
2023-02-15T16:09:16.750Z,101948.25
2023-02-15T16:11:44.363Z,101948.72
2023-02-15T16:14:18.408Z,101951.66
2023-02-15T16:16:52.298Z,101948.53
2023-02-15T16:19:27.018Z,101946.53
2023-02-15T16:21:55.336Z,101955.19
2023-02-15T16:24:31.746Z,101949.53
2023-02-15T16:27:19.712Z,101965.44
2023-02-15T16:29:46.852Z,101947.53
2023-02-15T16:32:24.318Z,101951.44
2023-02-15T16:35:03.181Z,101951.84
2023-02-15T16:37:37.668Z,101957.41
2023-02-15T16:40:04.613Z,101955.41
2023-02-15T16:42:31.468Z,101967.97
2023-02-15T16:45:04.288Z,101963.00
2023-02-15T16:47:35.105Z,101958.78
2023-02-15T16:50:05.582Z,101966.53
2023-02-15T16:52:32.954Z,101965.72
2023-02-15T16:55:07.520Z,101959.19
2023-02-15T16:57:38.422Z,101969.97
2023-02-15T17:00:08.841Z,101975.41
2023-02-15T17:02:56.523Z,101964.47
2023-02-15T17:05:23.713Z,101970.38
2023-02-15T17:08:07.961Z,101980.00
2023-02-15T17:10:37.884Z,101974.59
2023-02-15T17:13:12.770Z,101975.75
2023-02-15T17:15:59.438Z,101982.22
2023-02-15T17:18:44.467Z,101979.69
2023-02-15T17:21:14.975Z,101974.56
2023-02-15T17:23:45.991Z,101983.69
2023-02-15T17:26:20.699Z,101980.84
2023-02-15T17:29:02.438Z,101987.78
2023-02-15T17:31:34.346Z,101989.53
2023-02-15T17:34:02.714Z,101989.03
2023-02-15T17:36:31.553Z,101990.97
2023-02-15T17:38:58.485Z,101990.03
2023-02-15T17:41:35.213Z,101987.41
2023-02-15T17:44:04.083Z,101991.63
2023-02-15T17:46:35.946Z,101995.38
2023-02-15T17:49:03.601Z,101991.06
2023-02-15T17:51:32.241Z,102001.50
2023-02-15T17:54:17.753Z,101998.09
2023-02-15T17:56:44.666Z,101997.22
2023-02-15T17:59:12.614Z,101999.78
2023-02-15T18:02:04.609Z,102001.72
2023-02-15T18:04:55.698Z,102006.25
2023-02-15T18:07:41.141Z,102007.28
2023-02-15T18:10:37.990Z,102005.41
2023-02-15T18:13:05.146Z,102006.63
2023-02-15T18:15:32.224Z,102016.44
2023-02-15T18:17:59.217Z,102018.91
2023-02-15T18:20:30.882Z,102023.13
2023-02-15T18:22:57.770Z,102023.13
2023-02-15T18:25:25.773Z,102028.53
2023-02-15T18:27:54.905Z,102029.38
2023-02-15T18:30:24.567Z,102026.16
2023-02-15T18:32:54.102Z,102020.78
2023-02-15T18:35:24.734Z,102031.19
2023-02-15T18:37:53.535Z,102025.72
2023-02-15T18:40:23.126Z,102027.97
2023-02-15T18:42:50.053Z,102030.69
2023-02-15T18:45:28.769Z,102031.34
2023-02-15T18:47:55.760Z,102032.78
2023-02-15T18:50:24.158Z,102031.81
2023-02-15T18:52:51.664Z,102035.34
2023-02-15T18:55:21.265Z,102032.00
2023-02-15T18:57:51.150Z,102040.38
2023-02-15T19:00:19.555Z,102045.53
2023-02-15T19:02:46.931Z,102048.16
2023-02-15T19:05:15.025Z,102044.09
2023-02-15T19:07:43.690Z,102049.22
2023-02-15T19:10:16.795Z,102048.78
2023-02-15T19:12:44.332Z,102045.69
2023-02-15T19:15:19.357Z,102053.00
2023-02-15T19:17:46.877Z,102051.34
2023-02-15T19:20:19.648Z,102052.47
2023-02-15T19:22:51.964Z,102047.72
2023-02-15T19:25:30.362Z,102046.16
2023-02-15T19:27:58.413Z,102059.25
2023-02-15T19:30:30.810Z,102051.09
2023-02-15T19:32:59.016Z,102058.19
2023-02-15T19:35:30.476Z,102068.25
2023-02-15T19:37:59.696Z,102073.22
2023-02-15T19:40:29.719Z,102064.69
2023-02-15T19:42:57.452Z,102073.56
2023-02-15T19:45:27.613Z,102065.53
2023-02-15T19:47:55.308Z,102072.00
2023-02-15T19:50:28.384Z,102067.84
2023-02-15T19:52:57.543Z,102078.88
2023-02-15T19:55:25.721Z,102082.44
2023-02-15T19:57:54.226Z,102081.06
2023-02-15T20:00:24.313Z,102075.41
2023-02-15T20:02:51.787Z,102088.00
2023-02-15T20:05:19.664Z,102073.75
2023-02-15T20:07:52.097Z,102078.06
2023-02-15T20:10:23.234Z,102073.38
2023-02-15T20:12:50.741Z,102068.16
2023-02-15T20:15:28.701Z,102075.50
2023-02-15T20:17:57.304Z,102066.97
2023-02-15T20:20:30.387Z,102069.47
2023-02-15T20:22:57.509Z,102072.94
2023-02-15T20:25:27.944Z,102071.03
2023-02-15T20:27:55.804Z,102069.25
2023-02-15T20:30:25.327Z,102071.53
2023-02-15T20:32:52.289Z,102063.63
2023-02-15T20:35:24.489Z,102069.25
2023-02-15T20:37:56.355Z,102070.53
2023-02-15T20:40:26.875Z,102061.16
2023-02-15T20:42:53.766Z,102063.88
2023-02-15T20:45:26.610Z,102059.59
2023-02-15T20:47:54.050Z,102067.66
2023-02-15T20:50:26.492Z,102066.16
2023-02-15T20:52:55.968Z,102059.47
2023-02-15T20:55:25.827Z,102061.72
2023-02-15T20:57:53.044Z,102072.44
2023-02-15T21:00:29.422Z,102074.63
2023-02-15T21:02:58.926Z,102074.59
2023-02-15T21:05:32.846Z,102063.72
2023-02-15T21:08:00.416Z,102073.31
2023-02-15T21:10:30.130Z,102078.41
2023-02-15T21:12:59.900Z,102067.38
2023-02-15T21:15:35.897Z,102065.00
2023-02-15T21:18:05.773Z,102065.94
2023-02-15T21:20:35.369Z,102059.91
2023-02-15T21:23:05.105Z,102061.16
2023-02-15T21:25:36.760Z,102063.13
2023-02-15T21:28:05.640Z,102064.66
2023-02-15T21:30:32.545Z,102068.00
2023-02-15T21:32:59.408Z,102058.75
2023-02-15T21:35:28.357Z,102061.16
2023-02-15T21:37:56.401Z,102061.47
2023-02-15T21:40:29.439Z,102058.47
2023-02-15T21:43:16.504Z,102057.47
2023-02-15T21:45:58.504Z,102052.03
2023-02-15T21:48:25.577Z,102063.28
2023-02-15T21:51:11.372Z,102056.13
2023-02-15T21:53:45.957Z,102056.94
2023-02-15T21:56:14.584Z,102063.91
2023-02-15T21:58:41.434Z,102062.06
2023-02-15T22:01:20.567Z,102055.50
2023-02-15T22:03:47.730Z,102062.31
2023-02-15T22:06:14.644Z,102050.88
2023-02-15T22:08:41.596Z,102058.84
2023-02-15T22:11:13.904Z,102058.84
2023-02-15T22:13:42.089Z,102056.81
2023-02-15T22:16:22.013Z,102058.75
2023-02-15T22:18:49.277Z,102054.38
2023-02-15T22:21:19.595Z,102051.41
2023-02-15T22:23:47.308Z,102050.00
2023-02-15T22:26:25.096Z,102047.19
2023-02-15T22:28:52.196Z,102052.22
2023-02-15T22:31:21.461Z,102053.41
2023-02-15T22:33:49.899Z,102042.34
2023-02-15T22:36:30.940Z,102056.16
2023-02-15T22:38:57.976Z,102041.06
2023-02-15T22:41:29.127Z,102048.66
2023-02-15T22:43:57.114Z,102052.09
2023-02-15T22:46:25.348Z,102050.00
2023-02-15T22:48:52.559Z,102050.53
2023-02-15T22:51:23.572Z,102051.66
2023-02-15T22:53:52.383Z,102055.06
2023-02-15T22:56:26.743Z,102053.59
2023-02-15T22:58:57.944Z,102055.44
2023-02-15T23:01:31.808Z,102057.09
2023-02-15T23:04:01.191Z,102053.34
2023-02-15T23:06:29.715Z,102059.72
2023-02-15T23:08:57.195Z,102057.28
2023-02-15T23:11:24.099Z,102060.28
2023-02-15T23:13:51.669Z,102052.34
2023-02-15T23:16:18.954Z,102061.25
2023-02-15T23:18:47.338Z,102052.72
2023-02-15T23:21:32.947Z,102065.31
2023-02-15T23:24:15.883Z,102063.84
2023-02-15T23:26:42.711Z,102062.84
2023-02-15T23:29:14.992Z,102054.44
2023-02-15T23:31:44.204Z,102057.78
2023-02-15T23:34:17.688Z,102057.28
2023-02-15T23:36:45.154Z,102066.50
2023-02-15T23:39:36.619Z,102062.06
2023-02-15T23:42:26.290Z,102063.66
2023-02-15T23:44:53.110Z,102063.94
2023-02-15T23:47:44.001Z,102069.38
2023-02-15T23:50:20.609Z,102066.66
2023-02-15T23:52:48.013Z,102068.31
2023-02-15T23:55:15.872Z,102066.66
2023-02-15T23:57:44.123Z,102060.22
